Time;durP1;ratioP1;P1;durP2;ratioP2;P2;SDS_P1;SDS_P2;PMS_P1;PMS_P2;Temp;Humidity;BMP_temperature;BMP_pressure;BME280_temperature;BME280_humidity;BME280_pressure;Samples;Min_cycle;Max_cycle;Signal;HPM_P1;HPM_P2
2021/03/07 00:01:13;;;;;;;21.05;11.35;;;1.80;56.80;;;0.50;52.35;99353.84;5144669;27;20395;-78
2021/03/07 00:03:40;;;;;;;21.00;10.88;;;1.80;56.70;;;0.44;53.05;99357.00;5150943;27;20426;-78
2021/03/07 00:06:13;;;;;;;21.23;10.93;;;1.80;56.90;;;0.41;52.49;99353.84;5145900;27;20474;-78
2021/03/07 00:08:42;;;;;;;21.43;11.33;;;1.70;57.10;;;0.34;52.99;99357.00;5146078;27;20484;-77
2021/03/07 00:11:08;;;;;;;21.08;12.07;;;1.70;57.30;;;0.28;53.34;99349.75;5146325;27;20394;-79
2021/03/07 00:13:41;;;;;;;22.45;11.38;;;1.60;57.80;;;0.19;54.16;99353.16;5129894;27;20438;-78
2021/03/07 00:16:08;;;;;;;21.25;10.98;;;1.60;58.00;;;0.08;54.27;99355.91;5129570;27;20692;-78
2021/03/07 00:18:35;;;;;;;19.35;11.15;;;1.50;58.20;;;0.13;53.72;99364.13;5145288;27;20478;-79
2021/03/07 00:21:03;;;;;;;18.45;10.27;;;1.50;58.00;;;0.14;53.77;99357.97;5145861;27;20407;-78
2021/03/07 00:23:31;;;;;;;22.55;10.85;;;1.50;58.00;;;0.15;53.32;99358.81;5138962;27;20414;-78
2021/03/07 00:25:57;;;;;;;18.80;10.43;;;1.50;57.70;;;0.29;53.59;99359.22;5146585;27;20395;-79
2021/03/07 00:28:26;;;;;;;18.60;10.70;;;1.60;57.70;;;0.32;52.85;99353.72;5143515;27;20421;-78
2021/03/07 00:30:52;;;;;;;19.57;10.60;;;1.70;57.40;;;0.27;52.85;99353.31;5142417;27;20671;-78
2021/03/07 00:33:19;;;;;;;19.83;10.90;;;1.60;57.20;;;0.30;53.35;99355.63;5144378;27;20450;-78
2021/03/07 00:35:45;;;;;;;22.07;11.73;;;1.60;57.60;;;0.28;53.07;99357.56;5144704;27;20411;-79
2021/03/07 00:38:12;;;;;;;21.98;10.82;;;1.60;57.30;;;0.16;53.56;99345.63;5145888;27;20599;-79
2021/03/07 00:40:42;;;;;;;17.38;10.25;;;1.50;57.40;;;0.15;53.48;99346.56;5147785;27;20451;-79
2021/03/07 00:43:11;;;;;;;20.75;10.75;;;1.50;57.70;;;0.19;54.21;99347.13;5159133;27;20394;-79
2021/03/07 00:45:38;;;;;;;20.77;10.80;;;1.50;58.10;;;0.11;54.29;99350.44;5156295;27;20494;-79
2021/03/07 00:48:06;;;;;;;20.35;10.38;;;1.50;58.20;;;0.04;54.63;99340.69;5145082;27;20425;-79
2021/03/07 00:50:33;;;;;;;18.38;10.40;;;1.40;58.50;;;-0.02;54.37;99342.06;5142464;27;20555;-79
2021/03/07 00:53:01;;;;;;;16.45;10.13;;;1.40;58.60;;;0.01;54.82;99341.78;5144525;27;20418;-77
2021/03/07 00:55:27;;;;;;;18.55;10.27;;;1.30;58.90;;;0.10;54.40;99327.94;5142339;27;20422;-78
2021/03/07 00:57:54;;;;;;;20.42;10.65;;;1.40;58.60;;;0.11;53.90;99333.97;5142871;27;20445;-79
2021/03/07 01:00:26;;;;;;;21.02;10.63;;;1.40;58.30;;;0.10;54.50;99327.13;5141133;27;20410;-78
2021/03/07 01:02:52;;;;;;;22.23;11.77;;;1.40;58.50;;;0.13;53.83;99322.47;5123775;27;20677;-79
2021/03/07 01:05:19;;;;;;;17.83;10.35;;;1.50;58.40;;;0.10;54.13;99316.72;5142438;27;20406;-79
2021/03/07 01:07:46;;;;;;;18.83;10.25;;;1.50;58.20;;;0.09;54.37;99318.50;5144029;27;20417;-79
2021/03/07 01:10:15;;;;;;;19.20;10.77;;;1.50;58.70;;;0.15;54.21;99311.94;5142460;27;20479;-79
2021/03/07 01:12:43;;;;;;;19.88;10.20;;;1.50;58.60;;;0.15;54.17;99309.31;5123254;27;20477;-79
2021/03/07 01:15:11;;;;;;;18.58;10.15;;;1.50;58.40;;;0.27;53.71;99306.44;5139622;27;20426;-79
2021/03/07 01:17:41;;;;;;;16.67;8.98;;;1.50;58.10;;;0.19;52.44;99315.88;5144873;27;20394;-78
2021/03/07 01:20:12;;;;;;;16.83;9.52;;;1.50;56.70;;;0.14;52.65;99307.69;5152824;27;20420;-78
2021/03/07 01:22:39;;;;;;;17.15;9.45;;;1.50;56.60;;;0.12;52.65;99305.22;5138003;27;20394;-78
2021/03/07 01:25:07;;;;;;;17.38;9.70;;;1.50;56.80;;;0.12;52.78;99305.22;5155704;27;20387;-77
2021/03/07 01:27:34;;;;;;;16.57;9.70;;;1.50;56.90;;;0.36;52.20;99297.78;5153238;27;20456;-78
2021/03/07 01:30:00;;;;;;;20.50;10.02;;;1.60;57.10;;;0.44;52.21;99301.47;5142577;27;20398;-78
2021/03/07 01:32:28;;;;;;;19.25;10.77;;;1.70;56.70;;;0.37;52.19;99299.44;5142205;27;20398;-78
2021/03/07 01:34:54;;;;;;;17.85;9.85;;;1.70;56.70;;;0.28;52.48;99295.06;5141214;27;20458;-78
2021/03/07 01:37:20;;;;;;;13.82;8.75;;;1.70;56.60;;;0.12;53.03;99286.16;5122526;27;20414;-78
2021/03/07 01:39:47;;;;;;;15.93;9.10;;;1.50;56.90;;;0.10;52.71;99283.69;5144955;27;20407;-79
2021/03/07 01:42:14;;;;;;;14.82;8.68;;;1.50;57.40;;;-0.02;53.39;99290.84;5125084;27;20430;-78
2021/03/07 01:44:42;;;;;;;15.95;8.85;;;1.40;57.40;;;0.02;53.27;99290.53;5141326;27;20524;-79
2021/03/07 01:47:09;;;;;;;14.38;8.95;;;1.30;57.40;;;0.02;53.78;99275.75;5142761;27;20405;-78
2021/03/07 01:49:36;;;;;;;13.82;8.55;;;1.30;57.60;;;0.12;53.36;99267.94;5142336;27;20474;-78
2021/03/07 01:52:03;;;;;;;17.17;8.68;;;1.40;57.60;;;0.13;53.41;99270.41;5142276;27;20433;-78
2021/03/07 01:54:29;;;;;;;15.45;8.77;;;1.40;57.60;;;0.22;53.47;99269.56;5141094;27;20422;-79
2021/03/07 01:56:57;;;;;;;14.83;8.67;;;1.50;57.50;;;0.09;53.29;99263.81;5142026;27;20465;-78
2021/03/07 01:59:24;;;;;;;13.60;8.98;;;1.50;57.50;;;0.15;53.17;99260.66;5140728;27;20520;-79
2021/03/07 02:01:51;;;;;;;19.48;8.90;;;1.50;57.80;;;-0.10;54.40;99256.03;5141535;27;20679;-79
2021/03/07 02:04:17;;;;;;;14.87;8.97;;;1.30;58.10;;;-0.21;54.53;99256.97;5126215;27;20523;-78
2021/03/07 02:06:44;;;;;;;15.70;8.95;;;1.20;58.60;;;-0.31;54.82;99247.53;5143762;27;20637;-78
2021/03/07 02:09:11;;;;;;;14.80;8.83;;;1.10;58.90;;;-0.33;55.02;99247.66;5141439;27;20437;-78
2021/03/07 02:11:40;;;;;;;16.10;9.32;;;1.00;59.20;;;-0.40;55.07;99239.59;5142029;27;20747;-80
2021/03/07 02:14:08;;;;;;;14.07;8.52;;;1.00;59.30;;;-0.42;55.05;99238.91;5146903;27;20403;-78
2021/03/07 02:16:35;;;;;;;14.80;8.50;;;1.00;59.20;;;-0.41;55.30;99232.75;5145898;27;20490;-78
2021/03/07 02:19:06;;;;;;;15.48;9.13;;;1.00;59.30;;;-0.52;55.27;99232.84;5125390;27;20489;-78
2021/03/07 02:21:41;;;;;;;14.05;9.18;;;0.90;59.30;;;-0.40;55.48;99231.78;5144702;27;20398;-78
2021/03/07 02:24:10;;;;;;;15.80;8.23;;;0.90;59.60;;;-0.34;55.13;99229.59;5143364;27;20677;-78
2021/03/07 02:26:40;;;;;;;15.30;8.50;;;1.00;59.20;;;-0.36;55.11;99223.69;5144687;27;20408;-78
2021/03/07 02:29:08;;;;;;;15.13;7.93;;;1.00;59.80;;;-0.55;55.79;99216.72;5144654;27;20467;-78
2021/03/07 02:31:39;;;;;;;14.00;8.57;;;0.90;59.50;;;-0.72;55.93;99223.38;5144841;27;20402;-78
2021/03/07 02:34:12;;;;;;;13.30;8.40;;;0.70;60.00;;;-0.68;55.48;99221.34;5142161;27;20514;-78
2021/03/07 02:36:44;;;;;;;14.05;8.32;;;0.70;59.70;;;-0.75;55.13;99220.25;5141602;27;20468;-78
2021/03/07 02:39:12;;;;;;;11.57;7.83;;;0.70;59.40;;;-0.66;54.38;99203.81;5141475;27;20517;-78
2021/03/07 02:41:40;;;;;;;13.95;8.77;;;0.70;59.00;;;-0.59;54.95;99195.34;5139502;27;20456;-79
2021/03/07 02:44:11;;;;;;;12.77;8.60;;;0.80;59.00;;;-0.42;54.44;99189.47;5138711;28;20406;-77
2021/03/07 02:46:38;;;;;;;11.32;7.53;;;0.90;58.90;;;-0.27;53.75;99194.25;5138391;27;20391;-77
2021/03/07 02:49:12;;;;;;;12.30;7.68;;;1.00;58.40;;;-0.19;53.63;99189.19;5138096;27;20434;-78
2021/03/07 02:51:39;;;;;;;15.15;7.90;;;1.10;58.00;;;-0.14;52.95;99184.38;5120261;28;20470;-79
2021/03/07 02:54:09;;;;;;;13.47;8.00;;;1.20;57.50;;;-0.28;53.82;99190.00;5137944;28;20502;-77
2021/03/07 02:56:38;;;;;;;14.25;8.57;;;1.10;58.00;;;-0.30;54.45;99181.53;5137142;28;20712;-79
2021/03/07 02:59:09;;;;;;;15.52;8.35;;;1.10;58.70;;;-0.33;54.90;99179.19;5137902;28;20410;-78
2021/03/07 03:01:37;;;;;;;13.25;8.60;;;1.00;58.90;;;-0.35;54.88;99178.50;5136850;27;20426;-77
2021/03/07 03:04:05;;;;;;;17.20;9.75;;;1.00;59.00;;;-0.37;55.79;99181.25;5141959;27;20413;-79
2021/03/07 03:06:33;;;;;;;18.42;10.25;;;1.00;59.80;;;-0.36;56.43;99176.88;5142475;27;20459;-79
2021/03/07 03:09:01;;;;;;;17.55;8.90;;;1.00;60.30;;;-0.14;55.00;99174.78;5143706;27;20426;-77
2021/03/07 03:11:33;;;;;;;15.80;9.10;;;1.10;59.90;;;-0.12;55.23;99169.44;5145195;27;20688;-79
2021/03/07 03:14:02;;;;;;;16.60;9.38;;;1.20;59.50;;;-0.05;55.29;99167.94;5152241;27;20417;-78
2021/03/07 03:16:31;;;;;;;18.20;9.90;;;1.20;59.40;;;0.07;55.09;99166.81;5149751;27;20478;-79
2021/03/07 03:18:59;;;;;;;18.00;9.57;;;1.30;59.60;;;-0.05;55.45;99175.72;5144918;27;20398;-78
2021/03/07 03:21:26;;;;;;;14.20;9.63;;;1.30;59.60;;;-0.22;55.94;99166.03;5149944;27;20404;-78
2021/03/07 03:23:53;;;;;;;16.75;9.85;;;1.20;59.80;;;-0.40;56.23;99164.16;5130853;27;20415;-78
2021/03/07 03:26:20;;;;;;;15.20;8.80;;;1.10;60.30;;;-0.62;55.75;99167.03;5143709;27;20391;-78
2021/03/07 03:28:48;;;;;;;13.93;7.80;;;0.80;59.90;;;-0.76;55.21;99164.84;5144630;27;20406;-78
2021/03/07 03:31:15;;;;;;;11.68;7.82;;;0.70;59.30;;;-0.71;54.58;99156.63;5147393;27;20402;-78
2021/03/07 03:33:41;;;;;;;12.55;7.68;;;0.60;59.00;;;-0.58;54.12;99163.19;5146311;27;20415;-78
2021/03/07 03:36:08;;;;;;;15.30;7.78;;;0.70;58.70;;;-0.60;54.58;99159.09;5145128;27;20581;-78
2021/03/07 03:38:40;;;;;;;13.43;7.65;;;0.80;58.70;;;-0.68;54.71;99158.94;5142425;27;20808;-78
2021/03/07 03:41:11;;;;;;;12.20;8.00;;;0.70;58.90;;;-0.74;55.21;99159.47;5142970;27;20402;-78
2021/03/07 03:43:39;;;;;;;15.02;7.57;;;0.70;59.40;;;-0.81;55.52;99154.81;5143329;27;20413;-78
2021/03/07 03:46:06;;;;;;;15.27;8.18;;;0.60;59.40;;;-0.94;55.60;99159.47;5143340;27;20417;-78
2021/03/07 03:48:40;;;;;;;12.30;7.60;;;0.50;59.80;;;-0.84;55.76;99160.31;5143122;27;20657;-78
2021/03/07 03:51:09;;;;;;;9.90;6.97;;;0.50;60.00;;;-0.81;55.17;99154.00;5143231;27;20398;-78
2021/03/07 03:53:39;;;;;;;11.80;7.85;;;0.60;59.70;;;-0.89;55.85;99159.03;5142209;27;20406;-78
2021/03/07 03:56:07;;;;;;;14.77;8.23;;;0.50;59.80;;;-0.91;55.99;99153.19;5141396;27;20497;-78
2021/03/07 03:58:40;;;;;;;13.68;7.60;;;0.50;59.90;;;-0.95;55.69;99152.63;5141768;27;20464;-78
2021/03/07 04:01:08;;;;;;;12.93;8.15;;;0.40;59.90;;;-0.80;55.39;99147.84;5141544;27;20399;-78
2021/03/07 04:03:37;;;;;;;11.48;7.50;;;0.50;59.70;;;-0.75;55.53;99148.25;5141608;27;20423;-78
2021/03/07 04:06:04;;;;;;;19.45;10.35;;;0.60;59.60;;;-0.75;57.40;99150.06;5141118;27;20398;-78
2021/03/07 04:08:31;;;;;;;17.33;10.25;;;0.60;62.20;;;-0.77;57.25;99141.56;5140819;27;20398;-78
2021/03/07 04:10:58;;;;;;;18.10;10.03;;;0.60;61.70;;;-0.77;57.41;99134.59;5139396;27;20406;-79
2021/03/07 04:13:27;;;;;;;18.02;9.82;;;0.60;61.70;;;-0.77;57.88;99147.59;5121315;28;20704;-78
2021/03/07 04:15:54;;;;;;;16.63;10.75;;;0.60;61.90;;;-0.74;58.05;99139.50;5127308;27;20415;-78
2021/03/07 04:18:24;;;;;;;14.07;9.23;;;0.60;62.10;;;-0.54;57.08;99143.75;5148374;27;20498;-78
2021/03/07 04:20:52;;;;;;;16.08;9.20;;;0.80;61.80;;;-0.52;56.54;99138.41;5130941;27;20537;-77
2021/03/07 04:23:19;;;;;;;21.45;8.98;;;0.80;61.10;;;-0.70;56.91;99140.06;5147966;27;20426;-77
2021/03/07 04:25:47;;;;;;;15.77;7.80;;;0.70;60.80;;;-0.83;56.03;99135.94;5147178;27;20505;-78
2021/03/07 04:28:14;;;;;;;13.00;8.48;;;0.60;60.40;;;-0.74;56.58;99133.47;5146269;27;20729;-78
2021/03/07 04:30:41;;;;;;;17.83;8.32;;;0.60;60.40;;;-0.81;56.37;99136.63;5142922;27;20475;-78
2021/03/07 04:33:08;;;;;;;13.97;8.57;;;0.60;60.50;;;-0.93;57.28;99126.50;5139994;27;20449;-78
2021/03/07 04:35:35;;;;;;;14.50;7.97;;;0.50;61.20;;;-1.11;56.76;99130.69;5151842;27;20425;-77
2021/03/07 04:38:06;;;;;;;11.65;7.70;;;0.30;60.80;;;-1.08;57.02;99127.84;5149891;27;20428;-78
2021/03/07 04:40:33;;;;;;;14.68;7.70;;;0.30;61.00;;;-1.10;57.04;99127.16;5139763;27;20511;-80
2021/03/07 04:43:01;;;;;;;12.48;7.82;;;0.30;61.30;;;-1.07;56.66;99129.50;5124193;27;20820;-78
2021/03/07 04:45:28;;;;;;;13.55;7.75;;;0.30;60.90;;;-1.03;56.53;99128.25;5142217;27;20403;-78
2021/03/07 04:47:54;;;;;;;16.23;7.60;;;0.30;60.80;;;-0.90;55.98;99127.03;5141159;27;20395;-78
2021/03/07 04:50:20;;;;;;;11.80;7.30;;;0.40;60.40;;;-0.93;55.99;99127.31;5140343;27;20732;-78
2021/03/07 04:52:47;;;;;;;12.10;7.30;;;0.40;60.20;;;-1.06;55.97;99126.78;5122348;27;20463;-78
2021/03/07 04:55:15;;;;;;;12.45;7.97;;;0.40;60.00;;;-1.04;56.06;99122.22;5140306;27;20423;-78
2021/03/07 04:57:41;;;;;;;12.05;7.97;;;0.30;60.20;;;-0.92;56.14;99122.94;5140397;27;20468;-78
2021/03/07 05:00:11;;;;;;;12.27;8.20;;;0.40;60.30;;;-0.81;55.61;99118.44;5140956;27;20753;-78
2021/03/07 05:02:37;;;;;;;12.85;7.65;;;0.50;60.00;;;-1.06;55.96;99125.94;5121944;27;20521;-78
2021/03/07 05:05:06;;;;;;;13.88;8.02;;;0.40;60.00;;;-1.01;56.33;99114.19;5140119;27;20684;-78
2021/03/07 05:07:32;;;;;;;13.27;8.40;;;0.30;60.40;;;-0.89;55.46;99115.69;5139141;27;20438;-78
2021/03/07 05:09:59;;;;;;;13.40;7.38;;;0.40;60.00;;;-0.86;55.71;99118.03;5138412;27;20406;-78
2021/03/07 05:12:26;;;;;;;11.70;7.30;;;0.50;60.10;;;-0.96;55.94;99118.97;5121062;27;20403;-78
2021/03/07 05:14:52;;;;;;;13.35;7.70;;;0.50;60.00;;;-0.93;56.16;99111.72;5139742;27;20665;-78
2021/03/07 05:17:19;;;;;;;11.80;7.37;;;0.40;60.10;;;-0.87;56.06;99115.56;5138505;27;20688;-78
2021/03/07 05:19:45;;;;;;;12.38;7.65;;;0.50;60.10;;;-0.84;55.19;99107.50;5121288;27;20409;-78
2021/03/07 05:22:12;;;;;;;16.95;8.05;;;0.50;59.90;;;-0.74;55.21;99112.66;5139599;27;20471;-78
2021/03/07 05:24:39;;;;;;;16.50;8.00;;;0.60;59.40;;;-0.75;54.49;99109.25;5139135;27;20807;-78
2021/03/07 05:27:06;;;;;;;17.00;8.32;;;0.60;59.00;;;-0.77;54.77;99105.16;5128018;27;20807;-78
2021/03/07 05:29:34;;;;;;;14.23;8.33;;;0.60;59.00;;;-0.77;54.44;99100.78;5150578;27;20538;-78
2021/03/07 05:32:00;;;;;;;14.60;8.27;;;0.60;59.00;;;-0.73;54.38;99088.31;5152098;27;20409;-78
2021/03/07 05:34:27;;;;;;;14.73;7.90;;;0.60;59.00;;;-0.69;54.29;99089.69;5151325;27;20494;-78
2021/03/07 05:36:54;;;;;;;13.40;7.85;;;0.70;58.80;;;-0.66;54.52;99084.22;5152279;27;20414;-78
2021/03/07 05:39:20;;;;;;;13.52;8.48;;;0.70;58.70;;;-0.73;54.48;99089.16;5148028;27;20456;-78
2021/03/07 05:41:47;;;;;;;12.35;8.50;;;0.60;58.50;;;-0.79;54.84;99087.09;5148790;27;20445;-78
2021/03/07 05:44:13;;;;;;;14.80;8.30;;;0.60;58.80;;;-0.83;55.03;99093.53;5147078;27;20398;-78
2021/03/07 05:46:40;;;;;;;20.50;8.90;;;0.60;59.00;;;-0.80;54.94;99094.06;5148396;27;20406;-80
2021/03/07 05:49:08;;;;;;;16.70;8.40;;;0.50;59.10;;;-0.67;55.08;99100.75;5145884;27;20394;-79
2021/03/07 05:51:35;;;;;;;12.48;8.07;;;0.70;59.30;;;-0.65;54.84;99091.88;5143951;27;20455;-79
2021/03/07 05:54:03;;;;;;;20.17;7.90;;;0.70;59.40;;;-0.87;55.68;99092.97;5145829;27;20431;-79
2021/03/07 05:56:30;;;;;;;16.67;8.55;;;0.60;59.50;;;-1.03;57.41;99091.88;5142435;27;20683;-79
2021/03/07 05:58:58;;;;;;;14.53;8.20;;;0.40;61.00;;;-1.05;57.49;99091.22;5146355;27;20398;-79
2021/03/07 06:01:24;;;;;;;16.83;8.68;;;0.40;61.90;;;-1.03;57.37;99091.88;5145480;27;20406;-80
2021/03/07 06:03:52;;;;;;;18.35;9.10;;;0.30;62.00;;;-0.88;57.18;99077.50;5127313;27;20414;-80
2021/03/07 06:06:18;;;;;;;15.38;8.73;;;0.40;61.80;;;-0.76;57.27;99076.44;5147648;27;20414;-80
2021/03/07 06:08:44;;;;;;;12.05;8.05;;;0.50;61.50;;;-0.63;56.68;99074.38;5148019;27;20401;-80
2021/03/07 06:11:32;;;;;;;12.18;8.13;;;0.70;61.40;;;-0.56;56.20;99070.25;5145284;27;20533;-79
2021/03/07 06:13:58;;;;;;;16.17;8.60;;;0.80;60.70;;;-0.50;55.51;99068.84;5139214;27;20845;-80
2021/03/07 06:16:25;;;;;;;13.98;8.50;;;0.90;59.90;;;-0.45;55.27;99056.25;5139343;27;20700;-79
2021/03/07 06:18:52;;;;;;;14.50;8.38;;;0.90;59.40;;;-0.26;54.89;99065.81;5138135;27;20426;-79
2021/03/07 06:21:30;;;;;;;15.45;9.07;;;1.00;59.60;;;-0.23;54.97;99068.97;5142501;27;20403;-79
2021/03/07 06:23:58;;;;;;;14.85;8.50;;;1.10;59.20;;;-0.18;54.45;99073.72;5151333;27;20521;-79
2021/03/07 06:26:24;;;;;;;16.50;8.32;;;1.10;59.00;;;-0.25;54.83;99068.28;5152714;27;20467;-79
2021/03/07 06:29:08;;;;;;;18.10;8.00;;;1.10;58.80;;;-0.28;54.47;99062.50;5146806;27;20398;-79
2021/03/07 06:31:35;;;;;;;12.60;8.40;;;1.10;59.00;;;-0.26;54.87;99069.22;5145618;27;20430;-80
2021/03/07 06:34:03;;;;;;;13.57;8.60;;;1.10;59.10;;;-0.17;54.72;99060.56;5143710;27;20411;-80
2021/03/07 06:36:30;;;;;;;15.35;8.85;;;1.20;59.20;;;-0.14;54.72;99064.66;5138396;27;20418;-80
2021/03/07 06:38:59;;;;;;;14.93;8.77;;;1.10;59.00;;;-0.21;54.73;99067.00;5139700;27;20402;-80
2021/03/07 06:41:29;;;;;;;14.30;8.75;;;1.20;59.00;;;-0.17;54.27;99065.78;5143931;27;20449;-81
2021/03/07 06:44:08;;;;;;;16.17;9.00;;;1.20;59.00;;;-0.14;54.11;99059.44;5144355;27;20437;-82
2021/03/07 06:46:38;;;;;;;14.73;8.65;;;1.20;58.80;;;-0.15;54.57;99056.03;5148425;27;20426;-80
2021/03/07 06:49:07;;;;;;;14.77;8.68;;;1.20;58.70;;;-0.15;53.87;99052.63;5152371;27;20443;-79
2021/03/07 06:51:35;;;;;;;13.80;8.45;;;1.20;58.50;;;-0.16;54.00;99054.41;5140057;28;20491;-80
2021/03/07 06:54:17;;;;;;;14.80;9.23;;;1.20;58.60;;;-0.19;54.61;99051.25;5152659;28;20483;-80
2021/03/07 06:56:46;;;;;;;15.35;9.43;;;1.10;58.70;;;-0.16;54.13;99048.38;5154944;28;20402;-80
2021/03/07 06:59:18;;;;;;;15.90;8.93;;;1.10;58.70;;;0.01;53.67;99052.81;5128560;28;20407;-81
2021/03/07 07:01:48;;;;;;;12.63;8.95;;;1.30;58.50;;;0.02;53.53;99056.25;5142486;28;20459;-80
2021/03/07 07:04:16;;;;;;;14.50;8.80;;;1.30;58.10;;;0.02;53.32;99054.47;5141417;28;20456;-80
2021/03/07 07:06:58;;;;;;;15.63;9.07;;;1.30;58.70;;;0.03;53.67;99050.09;5123270;28;20474;-80
2021/03/07 07:09:25;;;;;;;14.40;9.40;;;1.30;58.10;;;0.07;53.23;99054.06;5141532;28;20472;-79
2021/03/07 07:11:53;;;;;;;21.75;9.75;;;1.40;58.10;;;0.15;53.12;99059.38;5139916;28;20780;-80
2021/03/07 07:14:30;;;;;;;15.88;9.70;;;1.40;57.90;;;0.26;53.05;99059.16;5141232;28;20395;-80
2021/03/07 07:16:57;;;;;;;15.23;9.35;;;1.50;57.80;;;0.36;52.83;99042.53;5140879;28;20414;-80
2021/03/07 07:19:24;;;;;;;15.95;10.07;;;1.60;57.60;;;0.43;52.48;99049.75;5139968;28;20402;-80
2021/03/07 07:21:51;;;;;;;17.40;10.10;;;1.70;57.30;;;0.52;52.59;99043.69;5140282;28;20470;-81
2021/03/07 07:24:17;;;;;;;19.33;9.55;;;1.80;57.30;;;0.63;52.30;99051.28;5140752;28;20394;-81
2021/03/07 07:26:45;;;;;;;17.25;9.43;;;1.90;57.20;;;0.67;52.23;99047.41;5141200;28;20410;-81
2021/03/07 07:29:11;;;;;;;15.82;9.30;;;2.00;57.00;;;0.70;51.86;99047.94;5141064;28;20410;-81
2021/03/07 07:31:45;;;;;;;16.40;9.40;;;2.00;56.70;;;0.75;52.51;99039.69;5121956;28;20414;-80
2021/03/07 07:34:16;;;;;;;17.55;9.15;;;2.00;56.70;;;0.73;51.75;99044.22;5140882;28;20480;-79
2021/03/07 07:36:51;;;;;;;14.00;9.30;;;2.00;56.50;;;0.73;52.08;99039.81;5139303;28;20414;-80
2021/03/07 07:39:28;;;;;;;14.18;8.63;;;2.00;56.50;;;0.74;51.97;99043.25;5140874;28;20405;-80
2021/03/07 07:41:55;;;;;;;15.18;9.32;;;2.00;56.60;;;0.80;51.99;99047.88;5140994;28;20467;-80
2021/03/07 07:44:31;;;;;;;16.13;9.00;;;2.10;56.80;;;0.87;52.16;99048.09;5123412;28;20824;-80
2021/03/07 07:47:01;;;;;;;16.55;9.07;;;2.10;57.00;;;0.94;52.44;99049.97;5140710;28;20402;-79
2021/03/07 07:49:41;;;;;;;19.02;10.20;;;2.20;57.00;;;0.97;52.24;99049.66;5143801;27;20449;-80
2021/03/07 07:52:38;;;;;;;19.20;9.93;;;2.20;56.90;;;1.07;52.34;99047.78;5144420;27;20387;-80
2021/03/07 07:55:13;;;;;;;16.85;10.80;;;2.30;56.80;;;1.15;52.04;99052.25;5144768;27;20430;-80
2021/03/07 07:57:48;;;;;;;13.73;9.13;;;2.40;56.80;;;1.24;52.33;99047.94;5144461;27;20402;-80
2021/03/07 08:00:47;;;;;;;17.65;10.18;;;2.50;56.70;;;1.30;51.61;99042.91;5145460;27;20438;-80
2021/03/07 08:03:33;;;;;;;17.15;9.65;;;2.50;56.40;;;1.33;51.83;99047.03;5141608;27;20416;-80
2021/03/07 08:06:02;;;;;;;18.65;10.98;;;2.60;56.50;;;1.38;51.86;99044.78;5144167;27;20402;-80
2021/03/07 08:08:35;;;;;;;16.85;9.93;;;2.60;56.40;;;1.38;51.84;99047.38;5125339;27;20452;-79
2021/03/07 08:11:04;;;;;;;20.38;10.10;;;2.60;56.30;;;1.42;51.93;99040.91;5142909;27;20415;-80
2021/03/07 08:13:48;;;;;;;15.90;10.00;;;2.70;56.40;;;1.49;51.49;99039.31;5125000;27;20421;-80
2021/03/07 08:16:46;;;;;;;17.03;10.37;;;2.70;56.20;;;1.63;51.13;99033.53;5143217;27;20777;-80
2021/03/07 08:19:15;;;;;;;16.80;10.25;;;2.80;56.10;;;1.66;50.77;99033.22;5143785;27;20394;-79
2021/03/07 08:22:00;;;;;;;17.80;10.02;;;2.90;55.70;;;1.70;50.95;99034.56;5143479;27;20844;-79
2021/03/07 08:24:56;;;;;;;15.07;10.10;;;2.90;55.80;;;1.80;50.75;99039.69;5143101;27;20410;-81
2021/03/07 08:27:35;;;;;;;16.85;9.52;;;3.00;55.80;;;1.78;50.50;99031.19;5145342;27;20447;-80
2021/03/07 08:30:07;;;;;;;20.17;9.67;;;3.00;55.30;;;1.79;50.69;99033.63;5139407;27;20495;-79
2021/03/07 08:32:38;;;;;;;18.92;9.82;;;3.00;55.40;;;1.82;50.80;99033.31;5157551;27;20411;-79
2021/03/07 08:35:20;;;;;;;20.05;10.55;;;3.00;55.50;;;1.87;50.59;99023.25;5147009;27;20422;-80
2021/03/07 08:38:10;;;;;;;13.88;9.35;;;3.10;55.40;;;1.98;50.33;99018.69;5143900;27;20390;-80
2021/03/07 08:40:39;;;;;;;19.27;10.35;;;3.20;55.40;;;2.06;50.15;99016.13;5144604;27;20417;-79
2021/03/07 08:43:52;;;;;;;16.73;10.15;;;3.30;55.20;;;2.13;49.95;99017.13;5144292;27;20657;-80
2021/03/07 08:46:24;;;;;;;15.25;10.15;;;3.30;54.90;;;2.18;49.84;99012.28;5145046;27;20418;-79
2021/03/07 08:48:53;;;;;;;16.50;10.10;;;3.40;54.70;;;2.26;49.46;99005.25;5143435;27;20781;-79
2021/03/07 08:51:31;;;;;;;16.83;10.87;;;3.50;54.60;;;2.43;49.62;99007.94;5143664;27;20710;-78
2021/03/07 08:54:03;;;;;;;15.77;9.90;;;3.50;54.60;;;2.63;48.79;99001.47;5144027;27;20838;-79
2021/03/07 08:56:34;;;;;;;16.27;10.05;;;3.80;54.20;;;2.72;48.77;98995.25;5145710;27;20414;-79
2021/03/07 08:59:00;;;;;;;14.73;10.38;;;3.90;53.80;;;2.77;48.78;99003.44;5123629;27;20445;-79
2021/03/07 09:01:27;;;;;;;14.10;9.45;;;4.00;53.60;;;2.78;48.69;98991.19;5140514;27;20585;-79
2021/03/07 09:04:08;;;;;;;17.23;10.27;;;4.00;53.60;;;2.80;48.59;98991.81;5124375;27;20631;-78
2021/03/07 09:06:39;;;;;;;14.20;9.80;;;4.00;53.50;;;2.90;48.61;98992.50;5141342;27;20406;-79
2021/03/07 09:09:12;;;;;;;16.08;10.30;;;4.00;53.60;;;3.00;48.46;98993.16;5140322;27;20399;-79
2021/03/07 09:11:51;;;;;;;15.57;9.93;;;4.20;53.50;;;2.93;48.33;98989.56;5142340;27;20403;-81
2021/03/07 09:14:29;;;;;;;19.92;10.82;;;4.10;53.10;;;2.95;48.51;98983.16;5141452;27;20815;-80
2021/03/07 09:16:57;;;;;;;19.95;10.65;;;4.10;53.30;;;2.97;48.62;98985.63;5140884;27;20438;-80
2021/03/07 09:19:31;;;;;;;17.75;10.68;;;4.20;53.30;;;3.08;48.37;98980.88;5141416;27;20407;-80
2021/03/07 09:22:31;;;;;;;17.60;10.77;;;4.20;53.30;;;3.24;48.42;98982.66;5123799;27;20422;-81
2021/03/07 09:25:05;;;;;;;17.52;11.23;;;4.40;53.40;;;3.35;48.10;98979.72;5142029;27;20509;-80
2021/03/07 09:27:46;;;;;;;19.83;11.48;;;4.50;53.30;;;3.54;48.39;98977.69;5136457;27;20431;-80
2021/03/07 09:30:16;;;;;;;18.08;11.25;;;4.60;53.40;;;3.73;48.00;98980.78;5121847;28;20794;-79
2021/03/07 09:32:47;;;;;;;18.55;11.63;;;4.80;53.20;;;3.85;47.78;98973.38;5123150;28;20409;-79
2021/03/07 09:35:26;;;;;;;22.03;13.07;;;4.90;53.10;;;4.02;47.39;98958.41;5121142;28;20450;-80
2021/03/07 09:38:01;;;;;;;18.15;10.57;;;5.10;52.60;;;4.05;46.92;98966.75;5122874;28;20794;-80
2021/03/07 09:40:31;;;;;;;19.08;12.00;;;5.20;51.90;;;4.37;46.84;98967.56;5121749;28;20476;-78
2021/03/07 09:43:06;;;;;;;18.67;12.23;;;5.30;52.00;;;4.52;46.27;98963.19;5121011;28;20396;-80
2021/03/07 09:45:33;;;;;;;20.35;11.80;;;5.60;51.70;;;4.78;45.67;98955.81;5121267;28;20405;-79
2021/03/07 09:48:03;;;;;;;17.60;11.00;;;5.80;51.20;;;4.73;45.57;98967.84;5121655;28;20429;-80
2021/03/07 09:50:33;;;;;;;20.33;11.93;;;5.90;50.80;;;4.73;45.69;98960.78;5121547;28;20696;-80
2021/03/07 09:53:05;;;;;;;16.07;10.60;;;5.80;50.80;;;4.63;45.67;98965.44;5121692;28;20498;-79
2021/03/07 09:55:35;;;;;;;18.97;11.37;;;5.80;50.70;;;4.51;46.38;98954.53;5121324;28;20496;-80
2021/03/07 09:58:05;;;;;;;20.02;11.05;;;5.70;51.10;;;4.49;46.16;98950.47;5121684;28;20412;-79
2021/03/07 10:00:36;;;;;;;19.45;11.10;;;5.60;51.30;;;4.49;46.20;98953.09;5121473;28;20408;-79
2021/03/07 10:03:17;;;;;;;18.60;11.88;;;5.60;51.30;;;4.53;46.35;98949.09;5121514;28;20754;-79
2021/03/07 10:06:01;;;;;;;18.90;12.05;;;5.60;51.40;;;4.58;46.29;98939.75;5116470;28;20404;-79
2021/03/07 10:08:31;;;;;;;17.33;11.63;;;5.70;51.40;;;4.67;46.18;98943.09;5097572;28;21147;-79
2021/03/07 10:11:18;;;;;;;19.13;11.52;;;5.70;51.30;;;4.74;45.75;98943.22;5100057;28;20413;-81
2021/03/07 10:13:57;;;;;;;19.23;12.05;;;5.90;51.00;;;4.75;45.86;98932.56;5098477;28;20510;-78
2021/03/07 10:16:27;;;;;;;19.90;11.05;;;5.90;50.90;;;4.77;45.79;98935.00;5100288;28;20773;-79
2021/03/07 10:19:10;;;;;;;17.70;11.43;;;5.90;50.90;;;4.88;45.72;98926.72;5086476;28;20428;-78
2021/03/07 10:21:40;;;;;;;16.45;11.07;;;5.90;50.90;;;4.79;45.72;98925.97;5092889;28;20436;-79
2021/03/07 10:24:13;;;;;;;19.95;11.77;;;5.90;50.60;;;4.76;45.58;98928.94;5102329;28;20445;-78
2021/03/07 10:26:42;;;;;;;17.92;11.45;;;5.80;50.80;;;4.88;45.87;98921.50;5092798;28;20471;-80
2021/03/07 10:29:27;;;;;;;17.38;11.70;;;5.90;50.80;;;5.12;45.33;98920.44;5101221;28;20416;-79
2021/03/07 10:32:17;;;;;;;17.20;11.93;;;6.10;50.60;;;5.13;45.27;98914.19;5099343;28;20518;-79
2021/03/07 10:34:46;;;;;;;16.85;11.52;;;6.20;50.50;;;5.31;44.93;98925.19;5099575;28;20503;-78